createdAt,value
2023-02-28T00:00:52.681Z,11.50
2023-02-28T00:01:52.694Z,9.00
2023-02-28T00:02:52.692Z,8.40
2023-02-28T00:03:52.658Z,8.40
2023-02-28T00:04:52.670Z,8.40
2023-02-28T00:05:52.641Z,8.60
2023-02-28T00:06:52.677Z,10.10
2023-02-28T00:07:52.644Z,9.20
2023-02-28T00:08:52.680Z,8.10
2023-02-28T00:09:52.637Z,7.90
2023-02-28T00:10:52.612Z,7.70
2023-02-28T00:11:52.607Z,7.90
2023-02-28T00:12:52.623Z,8.00
2023-02-28T00:13:52.618Z,7.90
2023-02-28T00:14:52.588Z,7.70
2023-02-28T00:15:52.590Z,7.80
2023-02-28T00:16:52.625Z,8.40
2023-02-28T00:17:52.585Z,8.00
2023-02-28T00:18:52.598Z,8.00
2023-02-28T00:19:52.559Z,7.90
2023-02-28T00:20:52.559Z,7.80
2023-02-28T00:21:52.551Z,8.20
2023-02-28T00:22:52.543Z,8.00
2023-02-28T00:23:52.554Z,8.10
2023-02-28T00:24:52.516Z,8.50
2023-02-28T00:25:52.586Z,8.20
2023-02-28T00:26:52.504Z,8.20
2023-02-28T00:27:52.509Z,8.20
2023-02-28T00:28:52.505Z,8.10
2023-02-28T00:29:52.479Z,8.40
2023-02-28T00:30:52.542Z,8.00
2023-02-28T00:31:52.501Z,8.20
2023-02-28T00:32:53.261Z,8.30
2023-02-28T00:33:52.485Z,8.10
2023-02-28T00:34:52.458Z,8.30
2023-02-28T00:35:52.478Z,8.30
2023-02-28T00:36:52.425Z,8.40
2023-02-28T00:37:52.419Z,8.10
2023-02-28T00:38:52.463Z,8.40
2023-02-28T00:39:52.410Z,8.50
2023-02-28T00:40:52.407Z,8.20
2023-02-28T00:41:52.392Z,8.30
2023-02-28T00:42:52.399Z,8.50
2023-02-28T00:43:52.402Z,8.70
2023-02-28T00:44:52.369Z,8.20
2023-02-28T00:45:52.398Z,8.80
2023-02-28T00:46:52.361Z,8.40
2023-02-28T00:47:52.342Z,8.70
2023-02-28T00:48:52.366Z,9.10
2023-02-28T00:49:52.328Z,8.50
2023-02-28T00:50:52.317Z,8.20
2023-02-28T00:51:52.317Z,8.40
2023-02-28T00:52:52.314Z,8.40
2023-02-28T00:53:52.329Z,8.00
2023-02-28T00:54:52.323Z,8.20
2023-02-28T00:55:52.362Z,8.20
2023-02-28T00:56:52.315Z,8.40
2023-02-28T00:57:52.319Z,8.20
2023-02-28T00:58:52.306Z,8.30
2023-02-28T00:59:52.268Z,8.00
2023-02-28T01:00:53.244Z,8.40
2023-02-28T01:01:52.410Z,8.40
2023-02-28T01:02:52.287Z,8.80
2023-02-28T01:03:52.280Z,8.30
2023-02-28T01:04:52.307Z,7.90
2023-02-28T01:05:52.223Z,8.60
2023-02-28T01:06:52.210Z,8.00
2023-02-28T01:07:52.195Z,8.00
2023-02-28T01:08:52.218Z,7.90
2023-02-28T01:09:52.197Z,7.80
2023-02-28T01:10:52.195Z,7.70
2023-02-28T01:11:52.187Z,7.80
2023-02-28T01:12:52.157Z,7.90
2023-02-28T01:13:52.210Z,7.70
2023-02-28T01:14:52.149Z,7.40
2023-02-28T01:15:52.229Z,7.40
2023-02-28T01:16:52.141Z,6.90
2023-02-28T01:17:52.129Z,7.70
2023-02-28T01:18:52.155Z,7.10
2023-02-28T01:19:52.117Z,7.10
2023-02-28T01:20:52.124Z,7.20
2023-02-28T01:21:52.101Z,7.20
2023-02-28T01:22:52.097Z,7.40
2023-02-28T01:23:52.115Z,7.60
2023-02-28T01:24:52.073Z,7.60
2023-02-28T01:25:52.085Z,7.90
2023-02-28T01:26:52.066Z,8.10
2023-02-28T01:27:52.062Z,10.00
2023-02-28T01:28:52.076Z,10.10
2023-02-28T01:29:52.048Z,9.00
2023-02-28T01:30:52.319Z,8.60
2023-02-28T01:31:52.096Z,8.40
2023-02-28T01:32:53.025Z,8.70
2023-02-28T01:33:52.041Z,8.20
2023-02-28T01:34:52.007Z,8.40
2023-02-28T01:35:52.037Z,8.20
2023-02-28T01:36:51.998Z,8.20
2023-02-28T01:37:52.013Z,8.30
2023-02-28T01:38:52.017Z,8.00
2023-02-28T01:39:51.969Z,8.30
2023-02-28T01:40:52.038Z,8.20
2023-02-28T01:41:51.957Z,7.90
2023-02-28T01:42:51.958Z,7.80
2023-02-28T01:43:51.965Z,7.60
2023-02-28T01:44:51.928Z,7.70
2023-02-28T01:45:51.936Z,7.60
2023-02-28T01:46:51.946Z,7.60
2023-02-28T01:47:51.912Z,7.80
2023-02-28T01:48:51.940Z,7.80
2023-02-28T01:49:51.899Z,7.40
2023-02-28T01:50:51.916Z,7.60
2023-02-28T01:51:52.054Z,7.60
2023-02-28T01:52:51.882Z,7.40
2023-02-28T01:53:51.887Z,7.30
2023-02-28T01:54:51.856Z,7.50
2023-02-28T01:55:51.849Z,7.40
2023-02-28T01:56:51.853Z,7.30
2023-02-28T01:57:51.833Z,7.20
2023-02-28T01:58:51.837Z,7.10
2023-02-28T01:59:51.854Z,7.80
2023-02-28T02:00:51.810Z,7.20
2023-02-28T02:01:51.850Z,7.10
2023-02-28T02:02:51.851Z,7.20
2023-02-28T02:03:51.782Z,7.10
2023-02-28T02:04:51.800Z,7.30
2023-02-28T02:05:51.770Z,6.90
2023-02-28T02:06:51.784Z,6.70
2023-02-28T02:07:51.764Z,6.80
2023-02-28T02:08:51.759Z,7.20
2023-02-28T02:09:51.788Z,6.70
2023-02-28T02:10:51.744Z,7.20
2023-02-28T02:11:51.751Z,7.00
2023-02-28T02:12:51.731Z,7.20
2023-02-28T02:13:51.754Z,6.90
2023-02-28T02:14:51.742Z,6.90
2023-02-28T02:15:51.823Z,7.00
2023-02-28T02:16:51.720Z,7.20
2023-02-28T02:17:51.696Z,6.90
2023-02-28T02:18:51.692Z,6.80
2023-02-28T02:19:51.702Z,7.10
2023-02-28T02:20:51.714Z,7.20
2023-02-28T02:21:51.665Z,6.80
2023-02-28T02:22:51.658Z,7.10
2023-02-28T02:23:51.663Z,6.60
2023-02-28T02:24:51.676Z,6.70
2023-02-28T02:25:51.636Z,6.40
2023-02-28T02:26:51.645Z,6.70
2023-02-28T02:27:51.635Z,6.90
2023-02-28T02:28:51.617Z,6.70
2023-02-28T02:29:51.645Z,6.70
2023-02-28T02:30:51.606Z,6.70
2023-02-28T02:31:51.707Z,6.80
2023-02-28T02:32:51.620Z,6.80
2023-02-28T02:33:51.583Z,6.50
2023-02-28T02:34:51.599Z,6.20
2023-02-28T02:35:51.605Z,6.40
2023-02-28T02:36:51.561Z,6.30
2023-02-28T02:37:51.545Z,6.30
2023-02-28T02:38:52.553Z,6.40
2023-02-28T02:39:51.565Z,6.40
2023-02-28T02:40:51.531Z,6.30
2023-02-28T02:41:51.542Z,6.20
2023-02-28T02:42:51.521Z,5.70
2023-02-28T02:43:51.504Z,5.90
2023-02-28T02:44:51.541Z,6.10
2023-02-28T02:45:51.520Z,5.70
2023-02-28T02:46:51.549Z,5.80
2023-02-28T02:47:51.483Z,6.00
2023-02-28T02:48:51.470Z,6.10
2023-02-28T02:49:51.491Z,5.70
2023-02-28T02:50:51.451Z,6.30
2023-02-28T02:51:51.451Z,5.80
2023-02-28T02:52:51.443Z,6.00
2023-02-28T02:53:51.439Z,5.90
2023-02-28T02:54:51.450Z,6.00
2023-02-28T02:55:52.426Z,6.00
2023-02-28T02:56:51.422Z,5.80
2023-02-28T02:57:51.416Z,5.90
2023-02-28T02:58:51.408Z,6.30
2023-02-28T02:59:51.418Z,6.10
2023-02-28T03:00:51.477Z,6.00
2023-02-28T03:01:51.386Z,5.80
2023-02-28T03:02:51.392Z,5.90
2023-02-28T03:03:51.465Z,6.20
2023-02-28T03:04:51.383Z,6.10
2023-02-28T03:05:51.381Z,5.80
2023-02-28T03:06:51.342Z,5.90
2023-02-28T03:07:51.348Z,6.40
2023-02-28T03:08:51.344Z,6.30
2023-02-28T03:09:51.366Z,6.30
2023-02-28T03:10:51.327Z,6.00
2023-02-28T03:11:51.319Z,6.20
2023-02-28T03:12:51.303Z,6.40
2023-02-28T03:13:51.296Z,5.90
2023-02-28T03:14:51.317Z,6.20
2023-02-28T03:15:51.271Z,6.40
2023-02-28T03:16:52.345Z,6.00
2023-02-28T03:17:51.269Z,5.80
2023-02-28T03:18:51.250Z,5.70
2023-02-28T03:19:51.323Z,6.00
2023-02-28T03:20:51.268Z,6.00
2023-02-28T03:21:51.271Z,5.90
2023-02-28T03:22:52.676Z,6.10
2023-02-28T03:23:51.248Z,5.80
2023-02-28T03:24:52.252Z,5.90
2023-02-28T03:25:51.220Z,6.10
2023-02-28T03:26:51.194Z,6.00
2023-02-28T03:27:51.202Z,6.10
2023-02-28T03:28:51.769Z,5.50
2023-02-28T03:29:51.200Z,6.00
2023-02-28T03:30:51.204Z,5.70
2023-02-28T03:31:51.324Z,5.80
2023-02-28T03:32:51.193Z,6.00
2023-02-28T03:33:51.215Z,5.80
2023-02-28T03:34:51.144Z,5.70
2023-02-28T03:35:51.212Z,6.00
2023-02-28T03:36:51.251Z,5.30
2023-02-28T03:37:51.123Z,5.80
2023-02-28T03:38:51.113Z,5.60
2023-02-28T03:39:51.113Z,5.80
2023-02-28T03:40:51.130Z,5.80
2023-02-28T03:41:51.145Z,5.80
2023-02-28T03:42:51.085Z,5.70
2023-02-28T03:43:51.086Z,5.90
2023-02-28T03:44:51.086Z,5.90
2023-02-28T03:45:51.112Z,6.00
2023-02-28T03:46:51.055Z,5.60
2023-02-28T03:47:51.053Z,5.80
2023-02-28T03:48:51.045Z,5.90
2023-02-28T03:49:51.041Z,5.50
2023-02-28T03:50:51.052Z,5.70
2023-02-28T03:51:51.012Z,5.40
2023-02-28T03:52:51.034Z,5.20
2023-02-28T03:53:51.011Z,5.20
2023-02-28T03:54:51.042Z,5.10
2023-02-28T03:55:51.011Z,5.00
2023-02-28T03:56:50.976Z,4.90
2023-02-28T03:57:50.974Z,4.70
2023-02-28T03:58:50.992Z,4.80
2023-02-28T03:59:50.962Z,4.80
2023-02-28T04:00:50.975Z,4.80
2023-02-28T04:01:50.987Z,4.90
2023-02-28T04:02:50.940Z,4.60
2023-02-28T04:03:50.930Z,4.50
2023-02-28T04:04:51.020Z,4.60
2023-02-28T04:05:50.956Z,4.70
2023-02-28T04:06:51.641Z,4.70
2023-02-28T04:07:51.893Z,4.80
2023-02-28T04:08:50.896Z,4.50
2023-02-28T04:09:50.883Z,4.90
2023-02-28T04:10:50.932Z,5.20
2023-02-28T04:11:50.872Z,4.70
2023-02-28T04:12:50.868Z,4.70
2023-02-28T04:13:50.855Z,4.40
2023-02-28T04:14:50.867Z,4.30
2023-02-28T04:15:50.881Z,4.50
2023-02-28T04:16:50.832Z,4.20
2023-02-28T04:17:50.827Z,4.50
2023-02-28T04:18:50.827Z,4.10
2023-02-28T04:19:51.808Z,4.10
2023-02-28T04:20:50.842Z,4.20
2023-02-28T04:21:50.796Z,4.50
2023-02-28T04:22:50.792Z,4.10
2023-02-28T04:23:50.780Z,4.20
2023-02-28T04:24:50.778Z,4.40
2023-02-28T04:25:50.793Z,4.10
2023-02-28T04:26:50.765Z,4.10
2023-02-28T04:27:50.750Z,4.10
2023-02-28T04:28:50.744Z,4.40
2023-02-28T04:29:50.746Z,4.40
2023-02-28T04:30:50.759Z,4.10
2023-02-28T04:31:50.827Z,4.20
2023-02-28T04:32:50.718Z,4.10
2023-02-28T04:33:50.718Z,4.40
2023-02-28T04:34:50.704Z,4.40
2023-02-28T04:35:50.733Z,4.60
2023-02-28T04:36:59.638Z,4.20
2023-02-28T04:37:52.676Z,4.30
2023-02-28T04:38:50.675Z,4.40
2023-02-28T04:39:50.671Z,4.10
2023-02-28T04:40:50.697Z,4.40
2023-02-28T04:41:50.671Z,4.70
2023-02-28T04:42:50.650Z,4.70
2023-02-28T04:43:50.638Z,5.80
2023-02-28T04:44:50.630Z,6.60
2023-02-28T04:45:50.678Z,6.10
2023-02-28T04:46:50.610Z,5.30
2023-02-28T04:47:50.610Z,4.80
2023-02-28T04:48:50.609Z,5.10
2023-02-28T04:49:50.596Z,4.80
2023-02-28T04:50:50.607Z,4.60
2023-02-28T04:51:50.572Z,4.60
2023-02-28T04:52:50.573Z,4.30
2023-02-28T04:53:50.563Z,4.30
2023-02-28T04:54:50.559Z,4.20
2023-02-28T04:55:50.573Z,4.50
2023-02-28T04:56:50.554Z,4.10
2023-02-28T04:57:50.534Z,4.20
2023-02-28T04:58:50.533Z,4.60
2023-02-28T04:59:50.525Z,4.30
2023-02-28T05:00:50.548Z,4.50
2023-02-28T05:01:50.512Z,4.40
2023-02-28T05:02:50.506Z,4.30
2023-02-28T05:03:50.489Z,4.50
2023-02-28T05:04:50.588Z,4.40
2023-02-28T05:05:50.535Z,4.40
2023-02-28T05:06:50.478Z,4.40
2023-02-28T05:07:50.464Z,4.60
2023-02-28T05:08:50.452Z,4.30
2023-02-28T05:09:50.461Z,4.50
2023-02-28T05:10:50.440Z,4.30
2023-02-28T05:11:50.493Z,4.60
2023-02-28T05:12:50.445Z,4.50
2023-02-28T05:13:50.425Z,4.40
2023-02-28T05:14:50.423Z,4.60
2023-02-28T05:15:50.448Z,4.50
2023-02-28T05:16:50.435Z,4.20
2023-02-28T05:17:50.476Z,4.10
2023-02-28T05:18:50.420Z,4.20
2023-02-28T05:19:50.375Z,4.50
2023-02-28T05:20:50.367Z,4.60
2023-02-28T05:21:50.394Z,4.50
2023-02-28T05:22:50.392Z,4.40
2023-02-28T05:23:50.365Z,4.10
2023-02-28T05:24:50.346Z,4.50
2023-02-28T05:25:50.331Z,4.40
2023-02-28T05:26:50.356Z,4.30
2023-02-28T05:27:50.348Z,4.30
2023-02-28T05:28:50.373Z,4.30
2023-02-28T05:29:50.306Z,4.20
2023-02-28T05:30:50.309Z,4.40
2023-02-28T05:31:50.422Z,4.10
2023-02-28T05:32:50.284Z,4.40
2023-02-28T05:33:50.283Z,4.20
2023-02-28T05:34:50.290Z,4.30
2023-02-28T05:35:50.332Z,4.00
2023-02-28T05:36:50.288Z,4.20
2023-02-28T05:37:50.263Z,4.40
2023-02-28T05:38:50.249Z,4.30
2023-02-28T05:39:50.235Z,4.50
2023-02-28T05:40:50.225Z,4.10
2023-02-28T05:41:50.263Z,4.30
2023-02-28T05:42:50.212Z,12.00
2023-02-28T05:43:50.224Z,7.60
2023-02-28T05:44:50.213Z,5.30
2023-02-28T05:45:50.215Z,4.60
2023-02-28T05:46:50.212Z,4.70
2023-02-28T05:47:50.175Z,4.70
2023-02-28T05:48:50.330Z,4.30
2023-02-28T05:49:50.157Z,4.50
2023-02-28T05:50:50.154Z,4.80
2023-02-28T05:51:50.244Z,4.70
2023-02-28T05:52:50.136Z,5.10
2023-02-28T05:53:50.140Z,4.70
2023-02-28T05:54:50.117Z,4.90
2023-02-28T05:55:50.118Z,4.70
2023-02-28T05:56:50.133Z,4.60
2023-02-28T05:57:50.106Z,4.70
2023-02-28T05:58:50.149Z,5.00
2023-02-28T05:59:50.099Z,4.80
2023-02-28T06:00:50.080Z,4.70
2023-02-28T06:01:50.107Z,4.80
2023-02-28T06:02:50.062Z,5.00
2023-02-28T06:03:50.051Z,4.80
2023-02-28T06:04:50.041Z,5.00
2023-02-28T06:05:50.055Z,5.20
2023-02-28T06:06:50.070Z,4.90
2023-02-28T06:07:50.052Z,5.00
2023-02-28T06:08:50.013Z,4.60
2023-02-28T06:09:50.032Z,5.00
2023-02-28T06:10:50.011Z,5.20
2023-02-28T06:11:50.032Z,4.80
2023-02-28T06:12:49.990Z,5.00
2023-02-28T06:13:50.043Z,4.60
2023-02-28T06:14:49.990Z,5.00
2023-02-28T06:15:49.974Z,5.60
2023-02-28T06:16:50.051Z,5.60
2023-02-28T06:17:49.984Z,5.70
2023-02-28T06:18:49.982Z,5.10
2023-02-28T06:19:49.948Z,5.30
2023-02-28T06:20:49.930Z,4.70
2023-02-28T06:21:49.929Z,4.60
2023-02-28T06:22:49.932Z,4.80
2023-02-28T06:23:50.913Z,4.90
2023-02-28T06:24:49.907Z,4.80
2023-02-28T06:25:49.887Z,4.80
2023-02-28T06:26:49.894Z,4.90
2023-02-28T06:27:49.909Z,4.80
2023-02-28T06:28:49.873Z,4.80
2023-02-28T06:29:49.875Z,4.90
2023-02-28T06:30:49.900Z,5.00
2023-02-28T06:31:50.754Z,5.00
2023-02-28T06:32:49.872Z,5.00
2023-02-28T06:33:49.844Z,5.30
2023-02-28T06:34:49.842Z,5.20
2023-02-28T06:35:49.964Z,5.00
2023-02-28T06:36:49.820Z,5.00
2023-02-28T06:37:49.850Z,5.00
2023-02-28T06:38:49.801Z,5.50
2023-02-28T06:39:49.795Z,5.50
2023-02-28T06:40:49.805Z,5.20
2023-02-28T06:41:55.186Z,5.10
2023-02-28T06:42:51.828Z,5.30
2023-02-28T06:43:49.764Z,5.00
2023-02-28T06:44:49.757Z,5.40
2023-02-28T06:45:49.963Z,5.20
2023-02-28T06:46:49.761Z,5.20
2023-02-28T06:47:49.830Z,5.10
2023-02-28T06:48:49.732Z,5.10
2023-02-28T06:49:49.729Z,5.10
2023-02-28T06:50:49.722Z,4.80
2023-02-28T06:51:49.731Z,5.10
2023-02-28T06:52:49.732Z,5.00
2023-02-28T06:53:49.716Z,5.00
2023-02-28T06:54:49.713Z,4.90
2023-02-28T06:55:49.684Z,4.80
2023-02-28T06:56:49.695Z,5.10
2023-02-28T06:57:49.699Z,4.70
2023-02-28T06:58:49.667Z,4.90
2023-02-28T06:59:49.660Z,5.00
2023-02-28T07:00:49.654Z,4.60
2023-02-28T07:01:49.683Z,4.90
2023-02-28T07:02:49.665Z,4.70
2023-02-28T07:03:49.629Z,4.80
2023-02-28T07:04:49.660Z,4.50
2023-02-28T07:05:49.616Z,4.80
2023-02-28T07:06:49.602Z,4.90
2023-02-28T07:07:49.644Z,4.90
2023-02-28T07:08:49.685Z,5.00
2023-02-28T07:09:49.597Z,5.10
2023-02-28T07:10:49.576Z,4.80
2023-02-28T07:11:49.573Z,5.00
2023-02-28T07:12:50.589Z,5.00
2023-02-28T07:13:49.550Z,4.80
2023-02-28T07:14:49.554Z,4.80
2023-02-28T07:15:49.573Z,4.70
2023-02-28T07:16:49.589Z,4.70
2023-02-28T07:17:49.575Z,4.50
2023-02-28T07:18:49.559Z,4.80
2023-02-28T07:19:49.507Z,4.80
2023-02-28T07:20:49.539Z,4.60
2023-02-28T07:21:49.486Z,4.60
2023-02-28T07:22:49.513Z,4.90
2023-02-28T07:23:49.595Z,4.30
2023-02-28T07:24:49.469Z,4.70
2023-02-28T07:25:49.466Z,4.60
2023-02-28T07:26:49.544Z,4.80
2023-02-28T07:27:49.471Z,4.60
2023-02-28T07:28:49.419Z,4.60
2023-02-28T07:29:50.424Z,4.40
2023-02-28T07:30:49.470Z,4.50
2023-02-28T07:31:49.461Z,4.60
2023-02-28T07:32:49.438Z,4.60
2023-02-28T07:33:50.291Z,4.80
2023-02-28T07:34:49.392Z,4.40
2023-02-28T07:35:49.443Z,4.60
2023-02-28T07:36:49.377Z,4.70
2023-02-28T07:37:49.405Z,4.50
2023-02-28T07:38:50.354Z,4.50
2023-02-28T07:39:49.378Z,4.70
2023-02-28T07:40:50.342Z,4.40
2023-02-28T07:41:49.340Z,4.30
2023-02-28T07:42:49.334Z,4.50
2023-02-28T07:43:49.343Z,4.50
2023-02-28T07:44:49.313Z,4.50
2023-02-28T07:45:49.315Z,4.70
2023-02-28T07:46:49.382Z,4.40
2023-02-28T07:47:49.301Z,4.50
2023-02-28T07:48:49.309Z,4.60
2023-02-28T07:49:49.278Z,4.90
2023-02-28T07:50:49.270Z,4.60
2023-02-28T07:51:49.270Z,4.80
2023-02-28T07:52:49.255Z,4.70
2023-02-28T07:53:49.276Z,4.80
2023-02-28T07:54:49.258Z,4.60
2023-02-28T07:55:49.242Z,4.40
2023-02-28T07:56:49.231Z,4.80
2023-02-28T07:57:49.255Z,4.80
2023-02-28T07:58:49.325Z,5.00
2023-02-28T07:59:49.201Z,4.60
2023-02-28T08:00:49.234Z,4.50
2023-02-28T08:01:49.206Z,4.70
2023-02-28T08:02:49.183Z,4.40
2023-02-28T08:03:49.219Z,4.60
2023-02-28T08:04:49.190Z,4.80
2023-02-28T08:05:49.202Z,4.90
2023-02-28T08:06:49.145Z,4.80
2023-02-28T08:07:49.142Z,4.80
2023-02-28T08:08:49.164Z,4.70
2023-02-28T08:09:49.137Z,4.70
2023-02-28T08:10:49.115Z,4.40
2023-02-28T08:11:49.111Z,4.60
2023-02-28T08:12:49.109Z,5.00
2023-02-28T08:13:49.117Z,4.70
2023-02-28T08:14:49.087Z,6.30
2023-02-28T08:15:49.097Z,5.50
2023-02-28T08:16:49.070Z,6.30
2023-02-28T08:17:49.059Z,5.00
2023-02-28T08:18:49.092Z,4.40
2023-02-28T08:19:49.047Z,4.90
2023-02-28T08:20:49.036Z,8.60
2023-02-28T08:21:49.081Z,5.10
2023-02-28T08:22:49.033Z,7.50
2023-02-28T08:23:49.039Z,5.10
2023-02-28T08:24:49.007Z,5.40
2023-02-28T08:25:49.008Z,7.50
2023-02-28T08:26:48.999Z,7.90
2023-02-28T08:27:48.986Z,8.70
2023-02-28T08:28:49.016Z,8.80
2023-02-28T08:29:48.973Z,6.90
2023-02-28T08:30:48.955Z,7.80
2023-02-28T08:31:49.141Z,10.30
2023-02-28T08:32:48.996Z,7.10
2023-02-28T08:33:48.965Z,9.40
2023-02-28T08:34:48.928Z,6.30
2023-02-28T08:35:48.967Z,11.10
2023-02-28T08:36:49.027Z,7.20
2023-02-28T08:37:48.910Z,5.90
2023-02-28T08:38:48.933Z,8.00
2023-02-28T08:39:48.893Z,7.50
2023-02-28T08:40:48.899Z,6.40
2023-02-28T08:41:53.476Z,7.30
2023-02-28T08:42:50.871Z,5.10
2023-02-28T08:43:48.922Z,6.80
2023-02-28T08:44:48.848Z,5.80
2023-02-28T08:45:48.861Z,7.00
2023-02-28T08:46:48.839Z,11.50
2023-02-28T08:47:48.825Z,6.50
2023-02-28T08:48:48.860Z,8.10
2023-02-28T08:49:48.848Z,5.80
2023-02-28T08:51:04.912Z,9.30
2023-02-28T08:51:50.794Z,8.80
2023-02-28T08:52:48.796Z,7.10
2023-02-28T08:53:48.842Z,11.20
2023-02-28T08:54:48.772Z,5.50
2023-02-28T08:55:48.763Z,6.60
2023-02-28T08:56:48.762Z,5.90
2023-02-28T08:57:48.792Z,8.20
2023-02-28T08:58:48.770Z,9.60
2023-02-28T08:59:48.734Z,8.00
2023-02-28T09:00:48.769Z,8.60
2023-02-28T09:01:48.718Z,11.90
2023-02-28T09:02:48.722Z,6.60
2023-02-28T09:03:48.781Z,13.70
2023-02-28T09:04:48.698Z,6.20
2023-02-28T09:05:48.725Z,6.70
2023-02-28T09:06:48.681Z,7.00
2023-02-28T09:07:48.696Z,8.10
2023-02-28T09:08:48.709Z,7.00
2023-02-28T09:09:48.668Z,7.30
2023-02-28T09:10:48.650Z,11.70
2023-02-28T09:11:48.665Z,10.50
2023-02-28T09:12:48.659Z,8.80
2023-02-28T09:13:48.674Z,11.10
2023-02-28T09:14:48.619Z,9.40
2023-02-28T09:15:48.617Z,7.80
2023-02-28T09:16:48.656Z,7.70
2023-02-28T09:17:48.798Z,8.10
2023-02-28T09:18:49.625Z,7.90
2023-02-28T09:19:48.586Z,7.80
2023-02-28T09:20:48.575Z,6.70
2023-02-28T09:21:48.579Z,7.00
2023-02-28T09:22:48.562Z,8.70
2023-02-28T09:23:48.575Z,7.10
2023-02-28T09:24:48.543Z,7.10
2023-02-28T09:25:48.525Z,7.80
2023-02-28T09:26:56.763Z,6.90
2023-02-28T09:27:50.521Z,6.80
2023-02-28T09:28:48.523Z,7.90
2023-02-28T09:29:48.535Z,6.90
2023-02-28T09:30:48.505Z,6.70
2023-02-28T09:31:48.549Z,6.70
2023-02-28T09:32:50.360Z,6.80
2023-02-28T09:33:48.478Z,6.60
2023-02-28T09:34:48.497Z,6.60
2023-02-28T09:35:48.524Z,7.00
2023-02-28T09:36:49.128Z,7.20
2023-02-28T09:37:48.482Z,6.90
2023-02-28T09:38:49.766Z,8.70
2023-02-28T09:39:48.497Z,7.20
2023-02-28T09:40:48.419Z,7.80
2023-02-28T09:41:48.543Z,6.80
2023-02-28T09:42:48.419Z,6.30
2023-02-28T09:43:48.399Z,6.50
2023-02-28T09:44:48.410Z,6.60
2023-02-28T09:45:48.408Z,6.60
2023-02-28T09:46:48.408Z,7.90
2023-02-28T09:47:48.376Z,7.00
2023-02-28T09:48:48.388Z,6.10
2023-02-28T09:49:48.370Z,6.40
2023-02-28T09:50:48.336Z,6.30
2023-02-28T09:51:48.759Z,6.60
2023-02-28T09:52:48.316Z,6.10
2023-02-28T09:53:53.379Z,6.50
2023-02-28T09:54:49.335Z,6.60
2023-02-28T09:55:48.297Z,6.30
2023-02-28T09:56:48.292Z,6.10
2023-02-28T09:57:48.299Z,6.40
2023-02-28T09:58:48.322Z,6.50
2023-02-28T09:59:48.307Z,6.60
2023-02-28T10:00:48.267Z,6.50
2023-02-28T10:01:48.282Z,6.40
2023-02-28T10:02:48.250Z,6.20
2023-02-28T10:03:48.240Z,6.40
2023-02-28T10:04:48.417Z,5.80
2023-02-28T10:05:48.229Z,6.40
2023-02-28T10:06:48.228Z,6.50
2023-02-28T10:07:48.368Z,5.60
2023-02-28T10:08:48.204Z,5.80
2023-02-28T10:09:48.217Z,6.30
2023-02-28T10:10:48.222Z,6.60
2023-02-28T10:11:48.217Z,6.30
2023-02-28T10:12:48.174Z,6.50
2023-02-28T10:13:48.183Z,6.30
2023-02-28T10:14:48.190Z,6.70
2023-02-28T10:15:48.161Z,5.90
2023-02-28T10:16:48.133Z,5.60
2023-02-28T10:17:55.131Z,6.00
2023-02-28T10:18:50.120Z,5.90
2023-02-28T10:19:48.139Z,6.40
2023-02-28T10:20:48.100Z,6.30
2023-02-28T10:21:48.097Z,6.30
2023-02-28T10:22:48.107Z,6.50
2023-02-28T10:23:48.087Z,6.50
2023-02-28T10:24:48.100Z,5.90
2023-02-28T10:25:48.085Z,6.60
2023-02-28T10:26:48.066Z,6.70
2023-02-28T10:27:49.052Z,6.40
2023-02-28T10:28:48.054Z,6.20
2023-02-28T10:29:48.070Z,6.40
2023-02-28T10:30:48.044Z,5.80
2023-02-28T10:31:48.037Z,5.90
2023-02-28T10:32:48.013Z,5.90
2023-02-28T10:33:48.010Z,5.80
2023-02-28T10:34:48.037Z,5.90
2023-02-28T10:35:48.061Z,5.90
2023-02-28T10:36:48.014Z,6.10
2023-02-28T10:37:48.345Z,6.70
2023-02-28T10:38:48.835Z,6.80
2023-02-28T10:39:48.013Z,5.80
2023-02-28T10:40:47.957Z,6.70
2023-02-28T10:41:47.948Z,6.40
2023-02-28T10:42:47.944Z,6.20
2023-02-28T10:43:47.935Z,6.20
2023-02-28T10:44:47.923Z,6.10
2023-02-28T10:45:47.942Z,6.20
2023-02-28T10:46:47.973Z,6.10
2023-02-28T10:47:47.889Z,6.20
2023-02-28T10:48:48.957Z,6.00
2023-02-28T10:49:47.881Z,5.80
2023-02-28T10:50:47.904Z,5.90
2023-02-28T10:51:47.873Z,5.90
2023-02-28T10:52:47.878Z,5.90
2023-02-28T10:54:00.134Z,5.80
2023-02-28T10:54:49.877Z,5.80
2023-02-28T10:55:47.835Z,5.90
2023-02-28T10:56:47.836Z,6.20
2023-02-28T10:57:47.826Z,5.90
2023-02-28T10:58:47.815Z,6.10
2023-02-28T10:59:47.819Z,6.20
2023-02-28T11:00:47.832Z,6.00
2023-02-28T11:01:47.816Z,5.70
2023-02-28T11:02:47.797Z,5.90
2023-02-28T11:03:47.775Z,5.90
2023-02-28T11:04:48.902Z,6.20
2023-02-28T11:05:48.796Z,6.20
2023-02-28T11:06:47.749Z,6.60
2023-02-28T11:07:53.371Z,6.20
2023-02-28T11:08:49.736Z,6.40
2023-02-28T11:09:47.733Z,6.30
2023-02-28T11:10:47.770Z,6.50
2023-02-28T11:11:47.716Z,6.30
2023-02-28T11:12:52.865Z,6.30
2023-02-28T11:13:49.699Z,6.30
2023-02-28T11:14:47.714Z,6.60
2023-02-28T11:15:47.781Z,6.20
2023-02-28T11:16:47.671Z,6.70
2023-02-28T11:17:47.662Z,6.80
2023-02-28T11:18:47.659Z,6.50
2023-02-28T11:19:47.685Z,6.90
2023-02-28T11:20:47.670Z,7.10
2023-02-28T11:21:47.635Z,6.80
2023-02-28T11:22:47.624Z,7.40
2023-02-28T11:23:47.623Z,6.50
2023-02-28T11:24:47.616Z,8.80
2023-02-28T11:25:47.623Z,10.70
2023-02-28T11:26:47.596Z,10.20
2023-02-28T11:27:47.611Z,7.70
2023-02-28T11:28:47.579Z,10.20
2023-02-28T11:29:47.575Z,8.10
2023-02-28T11:30:47.594Z,6.90
2023-02-28T11:31:47.603Z,6.80
2023-02-28T11:32:47.565Z,6.90
2023-02-28T11:33:47.562Z,6.80
2023-02-28T11:34:47.530Z,7.10
2023-02-28T11:35:47.562Z,7.50
2023-02-28T11:36:47.513Z,7.10
2023-02-28T11:37:47.529Z,7.10
2023-02-28T11:38:47.502Z,7.10
2023-02-28T11:39:47.502Z,7.10
2023-02-28T11:40:47.517Z,7.50
2023-02-28T11:41:47.479Z,6.40
2023-02-28T11:42:47.473Z,7.00
2023-02-28T11:43:47.463Z,6.80
2023-02-28T11:44:47.475Z,7.60
2023-02-28T11:45:47.475Z,7.00
2023-02-28T11:46:47.526Z,7.40
2023-02-28T11:47:47.433Z,8.40
2023-02-28T11:48:47.445Z,6.80
2023-02-28T11:49:47.419Z,7.00
2023-02-28T11:50:47.456Z,8.10
2023-02-28T11:51:47.408Z,9.00
2023-02-28T11:52:47.397Z,7.60
2023-02-28T11:53:47.383Z,6.90
2023-02-28T11:54:47.374Z,8.50
2023-02-28T11:55:48.395Z,7.80
2023-02-28T11:56:47.399Z,6.70
2023-02-28T11:57:47.403Z,6.60
2023-02-28T11:58:48.401Z,6.30
2023-02-28T11:59:48.362Z,5.80
2023-02-28T12:00:47.370Z,6.00
2023-02-28T12:01:47.339Z,6.40
2023-02-28T12:02:47.422Z,5.60
2023-02-28T12:03:47.314Z,6.80
2023-02-28T12:04:48.419Z,7.00
2023-02-28T12:05:47.334Z,6.90
2023-02-28T12:06:47.305Z,6.20
2023-02-28T12:07:47.297Z,6.30
2023-02-28T12:08:47.281Z,6.50
2023-02-28T12:09:47.286Z,6.70
2023-02-28T12:10:47.296Z,6.50
2023-02-28T12:11:47.270Z,6.70
2023-02-28T12:12:47.267Z,6.20
2023-02-28T12:13:47.255Z,6.70
2023-02-28T12:14:47.242Z,6.50
2023-02-28T12:15:47.268Z,6.20
2023-02-28T12:16:47.231Z,6.70
2023-02-28T12:17:47.216Z,6.40
2023-02-28T12:18:47.215Z,6.20
2023-02-28T12:19:47.208Z,6.00
2023-02-28T12:20:47.233Z,6.40
2023-02-28T12:21:47.194Z,6.30
2023-02-28T12:22:47.184Z,6.00
2023-02-28T12:23:47.231Z,6.40
2023-02-28T12:24:47.207Z,6.60
2023-02-28T12:25:47.154Z,6.50
2023-02-28T12:26:47.178Z,6.50
2023-02-28T12:27:47.147Z,6.80
2023-02-28T12:28:47.133Z,6.70
2023-02-28T12:29:47.138Z,7.10
2023-02-28T12:30:47.120Z,7.30
2023-02-28T12:31:47.258Z,6.50
2023-02-28T12:32:47.106Z,6.30
2023-02-28T12:33:47.095Z,7.00
2023-02-28T12:34:47.085Z,7.80
2023-02-28T12:35:47.117Z,6.80
2023-02-28T12:36:47.128Z,6.90
2023-02-28T12:37:47.084Z,7.30
2023-02-28T12:38:47.065Z,8.00
2023-02-28T12:39:50.482Z,6.60
2023-02-28T12:40:48.046Z,9.00
2023-02-28T12:41:47.046Z,6.80
2023-02-28T12:42:48.031Z,6.80
2023-02-28T12:43:47.018Z,7.00
2023-02-28T12:44:47.015Z,7.00
2023-02-28T12:45:47.117Z,7.00
2023-02-28T12:46:47.022Z,7.70
2023-02-28T12:47:46.992Z,8.20
2023-02-28T12:48:47.019Z,9.00
2023-02-28T12:49:46.970Z,8.30
2023-02-28T12:50:46.961Z,7.80
2023-02-28T12:51:47.002Z,8.60
2023-02-28T12:52:46.981Z,7.90
2023-02-28T12:53:46.940Z,7.80
2023-02-28T12:54:46.927Z,8.00
2023-02-28T12:55:46.964Z,7.60
2023-02-28T12:56:46.939Z,7.70
2023-02-28T12:57:47.910Z,10.60
2023-02-28T12:58:46.908Z,8.00
2023-02-28T12:59:46.914Z,7.60
2023-02-28T13:00:46.880Z,8.00
2023-02-28T13:01:46.907Z,8.50
2023-02-28T13:02:46.882Z,7.70
2023-02-28T13:03:46.975Z,7.60
2023-02-28T13:04:46.859Z,7.80
2023-02-28T13:05:46.865Z,7.80
2023-02-28T13:06:46.869Z,7.40
2023-02-28T13:07:46.869Z,7.70
2023-02-28T13:08:46.836Z,6.80
2023-02-28T13:09:46.830Z,7.70
2023-02-28T13:10:46.806Z,8.30
2023-02-28T13:11:46.829Z,8.80
2023-02-28T13:12:46.789Z,7.60
2023-02-28T13:13:46.799Z,8.30
2023-02-28T13:14:46.804Z,7.40
2023-02-28T13:15:46.762Z,8.90
2023-02-28T13:16:46.812Z,8.50
2023-02-28T13:17:46.752Z,7.40